sensor_id;sensor_type;location;lat;lon;timestamp;P1;durP1;ratioP1;P2;durP2;ratioP2
8622;SDS011;4349;47.552;8.904;2023-02-24T00:01:16;16.33;;;11.50;;
8622;SDS011;4349;47.552;8.904;2023-02-24T00:03:50;14.70;;;11.97;;
8622;SDS011;4349;47.552;8.904;2023-02-24T00:06:18;14.77;;;10.53;;
8622;SDS011;4349;47.552;8.904;2023-02-24T00:08:46;12.70;;;10.80;;
8622;SDS011;4349;47.552;8.904;2023-02-24T00:11:15;13.87;;;11.33;;
8622;SDS011;4349;47.552;8.904;2023-02-24T00:13:44;15.97;;;12.00;;
8622;SDS011;4349;47.552;8.904;2023-02-24T00:16:13;13.97;;;10.50;;
8622;SDS011;4349;47.552;8.904;2023-02-24T00:18:43;13.90;;;11.50;;
8622;SDS011;4349;47.552;8.904;2023-02-24T00:21:12;13.07;;;10.10;;
8622;SDS011;4349;47.552;8.904;2023-02-24T00:23:42;12.63;;;10.93;;
8622;SDS011;4349;47.552;8.904;2023-02-24T00:26:12;14.37;;;11.40;;
8622;SDS011;4349;47.552;8.904;2023-02-24T00:28:42;15.47;;;10.73;;
8622;SDS011;4349;47.552;8.904;2023-02-24T00:31:11;12.73;;;10.73;;
8622;SDS011;4349;47.552;8.904;2023-02-24T00:33:43;15.90;;;11.03;;
8622;SDS011;4349;47.552;8.904;2023-02-24T00:36:12;13.10;;;10.83;;
8622;SDS011;4349;47.552;8.904;2023-02-24T00:38:42;17.53;;;11.17;;
8622;SDS011;4349;47.552;8.904;2023-02-24T00:41:14;14.27;;;10.83;;
8622;SDS011;4349;47.552;8.904;2023-02-24T00:43:43;14.03;;;11.40;;
8622;SDS011;4349;47.552;8.904;2023-02-24T00:46:13;13.67;;;10.67;;
8622;SDS011;4349;47.552;8.904;2023-02-24T00:48:43;16.17;;;11.33;;
8622;SDS011;4349;47.552;8.904;2023-02-24T00:51:13;14.43;;;11.00;;
8622;SDS011;4349;47.552;8.904;2023-02-24T00:53:42;13.53;;;10.53;;
8622;SDS011;4349;47.552;8.904;2023-02-24T00:56:09;12.47;;;10.80;;
8622;SDS011;4349;47.552;8.904;2023-02-24T00:58:38;15.90;;;11.33;;
8622;SDS011;4349;47.552;8.904;2023-02-24T01:01:10;12.77;;;10.63;;
8622;SDS011;4349;47.552;8.904;2023-02-24T01:03:39;13.03;;;10.83;;
8622;SDS011;4349;47.552;8.904;2023-02-24T01:06:08;13.53;;;11.33;;
8622;SDS011;4349;47.552;8.904;2023-02-24T01:08:38;14.97;;;10.57;;
8622;SDS011;4349;47.552;8.904;2023-02-24T01:11:13;11.93;;;10.67;;
8622;SDS011;4349;47.552;8.904;2023-02-24T01:14:02;14.27;;;10.87;;
8622;SDS011;4349;47.552;8.904;2023-02-24T01:16:33;12.20;;;10.17;;
8622;SDS011;4349;47.552;8.904;2023-02-24T01:19:02;12.47;;;11.00;;
8622;SDS011;4349;47.552;8.904;2023-02-24T01:21:32;11.73;;;10.47;;
8622;SDS011;4349;47.552;8.904;2023-02-24T01:24:00;12.87;;;10.50;;
8622;SDS011;4349;47.552;8.904;2023-02-24T01:26:28;12.00;;;10.63;;
8622;SDS011;4349;47.552;8.904;2023-02-24T01:28:59;12.77;;;10.90;;
8622;SDS011;4349;47.552;8.904;2023-02-24T01:31:28;15.13;;;10.90;;
8622;SDS011;4349;47.552;8.904;2023-02-24T01:33:57;14.63;;;11.03;;
8622;SDS011;4349;47.552;8.904;2023-02-24T01:36:32;15.97;;;11.57;;
8622;SDS011;4349;47.552;8.904;2023-02-24T01:39:00;13.43;;;11.17;;
8622;SDS011;4349;47.552;8.904;2023-02-24T01:41:29;13.67;;;11.20;;
8622;SDS011;4349;47.552;8.904;2023-02-24T01:43:59;14.67;;;11.30;;
8622;SDS011;4349;47.552;8.904;2023-02-24T01:46:30;11.93;;;10.73;;
8622;SDS011;4349;47.552;8.904;2023-02-24T01:49:01;12.23;;;10.97;;
8622;SDS011;4349;47.552;8.904;2023-02-24T01:51:35;12.50;;;11.03;;
8622;SDS011;4349;47.552;8.904;2023-02-24T01:54:05;12.00;;;10.30;;
8622;SDS011;4349;47.552;8.904;2023-02-24T01:56:35;12.37;;;10.67;;
8622;SDS011;4349;47.552;8.904;2023-02-24T01:59:03;13.57;;;10.93;;
8622;SDS011;4349;47.552;8.904;2023-02-24T02:01:32;11.23;;;10.10;;
8622;SDS011;4349;47.552;8.904;2023-02-24T02:04:08;13.17;;;9.93;;
8622;SDS011;4349;47.552;8.904;2023-02-24T02:06:41;11.27;;;9.83;;
8622;SDS011;4349;47.552;8.904;2023-02-24T02:09:12;14.03;;;10.10;;
8622;SDS011;4349;47.552;8.904;2023-02-24T02:11:41;11.63;;;10.30;;
8622;SDS011;4349;47.552;8.904;2023-02-24T02:14:11;15.93;;;10.30;;
8622;SDS011;4349;47.552;8.904;2023-02-24T02:22:17;13.07;;;9.70;;
8622;SDS011;4349;47.552;8.904;2023-02-24T02:24:52;13.03;;;10.20;;
8622;SDS011;4349;47.552;8.904;2023-02-24T02:30:18;12.33;;;9.70;;
8622;SDS011;4349;47.552;8.904;2023-02-24T02:32:54;12.13;;;9.63;;
8622;SDS011;4349;47.552;8.904;2023-02-24T02:35:29;12.23;;;9.73;;
8622;SDS011;4349;47.552;8.904;2023-02-24T02:38:04;11.97;;;10.27;;
8622;SDS011;4349;47.552;8.904;2023-02-24T02:40:36;10.27;;;9.17;;
8622;SDS011;4349;47.552;8.904;2023-02-24T02:43:08;10.53;;;9.53;;
8622;SDS011;4349;47.552;8.904;2023-02-24T02:45:42;10.13;;;9.00;;
8622;SDS011;4349;47.552;8.904;2023-02-24T02:48:16;9.73;;;8.83;;
8622;SDS011;4349;47.552;8.904;2023-02-24T02:50:48;11.70;;;9.93;;
8622;SDS011;4349;47.552;8.904;2023-02-24T02:53:20;10.60;;;9.57;;
8622;SDS011;4349;47.552;8.904;2023-02-24T02:55:51;10.90;;;9.80;;
8622;SDS011;4349;47.552;8.904;2023-02-24T02:58:23;11.30;;;10.17;;
8622;SDS011;4349;47.552;8.904;2023-02-24T03:00:54;11.17;;;9.67;;
8622;SDS011;4349;47.552;8.904;2023-02-24T03:03:30;10.47;;;9.33;;
8622;SDS011;4349;47.552;8.904;2023-02-24T03:06:03;9.20;;;8.40;;
8622;SDS011;4349;47.552;8.904;2023-02-24T03:08:33;11.47;;;10.27;;
8622;SDS011;4349;47.552;8.904;2023-02-24T03:11:03;11.53;;;10.33;;
8622;SDS011;4349;47.552;8.904;2023-02-24T03:13:33;10.17;;;9.23;;
8622;SDS011;4349;47.552;8.904;2023-02-24T03:16:05;10.50;;;9.60;;
8622;SDS011;4349;47.552;8.904;2023-02-24T03:18:36;10.20;;;9.20;;
8622;SDS011;4349;47.552;8.904;2023-02-24T03:21:06;11.07;;;9.93;;
8622;SDS011;4349;47.552;8.904;2023-02-24T03:23:36;11.57;;;10.40;;
8622;SDS011;4349;47.552;8.904;2023-02-24T03:26:07;10.30;;;9.30;;
8622;SDS011;4349;47.552;8.904;2023-02-24T03:28:45;10.73;;;9.73;;
8622;SDS011;4349;47.552;8.904;2023-02-24T03:31:17;11.20;;;10.13;;
8622;SDS011;4349;47.552;8.904;2023-02-24T03:33:51;12.30;;;10.97;;
8622;SDS011;4349;47.552;8.904;2023-02-24T03:36:28;11.60;;;10.23;;
8622;SDS011;4349;47.552;8.904;2023-02-24T03:38:56;12.00;;;10.77;;
8622;SDS011;4349;47.552;8.904;2023-02-24T03:41:31;11.93;;;10.30;;
8622;SDS011;4349;47.552;8.904;2023-02-24T03:44:05;10.40;;;9.40;;
8622;SDS011;4349;47.552;8.904;2023-02-24T03:46:34;10.87;;;9.73;;
8622;SDS011;4349;47.552;8.904;2023-02-24T03:49:04;11.00;;;9.90;;
8622;SDS011;4349;47.552;8.904;2023-02-24T03:51:37;10.87;;;9.73;;
8622;SDS011;4349;47.552;8.904;2023-02-24T03:54:16;10.43;;;9.43;;
8622;SDS011;4349;47.552;8.904;2023-02-24T03:56:50;10.63;;;9.57;;
8622;SDS011;4349;47.552;8.904;2023-02-24T03:59:26;11.10;;;10.00;;
8622;SDS011;4349;47.552;8.904;2023-02-24T04:01:57;10.50;;;9.27;;
8622;SDS011;4349;47.552;8.904;2023-02-24T04:04:35;10.47;;;9.37;;
8622;SDS011;4349;47.552;8.904;2023-02-24T04:07:20;10.43;;;9.33;;
8622;SDS011;4349;47.552;8.904;2023-02-24T04:09:53;10.97;;;9.77;;
8622;SDS011;4349;47.552;8.904;2023-02-24T04:12:25;10.80;;;9.70;;
8622;SDS011;4349;47.552;8.904;2023-02-24T04:14:59;10.60;;;9.50;;
8622;SDS011;4349;47.552;8.904;2023-02-24T04:17:31;10.83;;;9.73;;
8622;SDS011;4349;47.552;8.904;2023-02-24T04:20:02;11.97;;;10.13;;
8622;SDS011;4349;47.552;8.904;2023-02-24T04:22:39;11.90;;;10.13;;
8622;SDS011;4349;47.552;8.904;2023-02-24T04:25:09;14.97;;;10.93;;
8622;SDS011;4349;47.552;8.904;2023-02-24T04:27:40;11.03;;;9.93;;
8622;SDS011;4349;47.552;8.904;2023-02-24T04:30:13;12.63;;;10.50;;
8622;SDS011;4349;47.552;8.904;2023-02-24T04:32:40;13.17;;;10.13;;
8622;SDS011;4349;47.552;8.904;2023-02-24T04:35:11;10.80;;;9.73;;
8622;SDS011;4349;47.552;8.904;2023-02-24T04:37:43;12.80;;;10.37;;
8622;SDS011;4349;47.552;8.904;2023-02-24T04:40:12;18.70;;;11.30;;
8622;SDS011;4349;47.552;8.904;2023-02-24T04:42:43;15.37;;;12.07;;
8622;SDS011;4349;47.552;8.904;2023-02-24T04:45:15;19.30;;;11.90;;
8622;SDS011;4349;47.552;8.904;2023-02-24T04:47:46;15.53;;;11.57;;
8622;SDS011;4349;47.552;8.904;2023-02-24T04:50:16;15.23;;;11.73;;
8622;SDS011;4349;47.552;8.904;2023-02-24T04:52:50;13.07;;;10.90;;
8622;SDS011;4349;47.552;8.904;2023-02-24T04:55:18;14.33;;;11.33;;
8622;SDS011;4349;47.552;8.904;2023-02-24T04:57:47;13.40;;;10.90;;
8622;SDS011;4349;47.552;8.904;2023-02-24T05:00:16;12.33;;;10.93;;
8622;SDS011;4349;47.552;8.904;2023-02-24T05:02:53;15.70;;;11.30;;
8622;SDS011;4349;47.552;8.904;2023-02-24T05:05:22;17.37;;;11.47;;
8622;SDS011;4349;47.552;8.904;2023-02-24T05:07:52;13.67;;;11.43;;
8622;SDS011;4349;47.552;8.904;2023-02-24T05:10:20;12.93;;;10.93;;
8622;SDS011;4349;47.552;8.904;2023-02-24T05:12:52;13.17;;;10.60;;
8622;SDS011;4349;47.552;8.904;2023-02-24T05:15:20;12.90;;;10.03;;
8622;SDS011;4349;47.552;8.904;2023-02-24T05:17:47;12.03;;;9.73;;
8622;SDS011;4349;47.552;8.904;2023-02-24T05:20:17;10.90;;;9.27;;
8622;SDS011;4349;47.552;8.904;2023-02-24T05:23:04;11.60;;;10.40;;
8622;SDS011;4349;47.552;8.904;2023-02-24T05:25:31;11.93;;;9.50;;
8622;SDS011;4349;47.552;8.904;2023-02-24T05:28:03;11.80;;;9.33;;
8622;SDS011;4349;47.552;8.904;2023-02-24T05:30:32;10.07;;;9.00;;
8622;SDS011;4349;47.552;8.904;2023-02-24T05:32:59;10.87;;;9.80;;
8622;SDS011;4349;47.552;8.904;2023-02-24T05:35:27;12.33;;;10.03;;
8622;SDS011;4349;47.552;8.904;2023-02-24T05:37:57;10.37;;;9.37;;
8622;SDS011;4349;47.552;8.904;2023-02-24T05:40:27;11.50;;;9.93;;
8622;SDS011;4349;47.552;8.904;2023-02-24T05:42:55;12.57;;;10.07;;
8622;SDS011;4349;47.552;8.904;2023-02-24T05:45:23;12.57;;;10.17;;
8622;SDS011;4349;47.552;8.904;2023-02-24T05:47:56;12.37;;;9.40;;
8622;SDS011;4349;47.552;8.904;2023-02-24T05:50:25;15.33;;;10.27;;
8622;SDS011;4349;47.552;8.904;2023-02-24T05:52:52;11.80;;;10.67;;
8622;SDS011;4349;47.552;8.904;2023-02-24T05:55:21;11.40;;;10.17;;
8622;SDS011;4349;47.552;8.904;2023-02-24T05:57:50;12.47;;;10.10;;
8622;SDS011;4349;47.552;8.904;2023-02-24T06:00:19;12.37;;;10.97;;
8622;SDS011;4349;47.552;8.904;2023-02-24T06:02:51;11.90;;;10.67;;
8622;SDS011;4349;47.552;8.904;2023-02-24T06:05:18;11.23;;;9.67;;
8622;SDS011;4349;47.552;8.904;2023-02-24T06:07:55;12.40;;;11.10;;
8622;SDS011;4349;47.552;8.904;2023-02-24T06:10:30;13.93;;;10.47;;
8622;SDS011;4349;47.552;8.904;2023-02-24T06:13:01;14.27;;;10.77;;
8622;SDS011;4349;47.552;8.904;2023-02-24T06:15:28;14.90;;;10.60;;
8622;SDS011;4349;47.552;8.904;2023-02-24T06:17:57;13.83;;;10.97;;
8622;SDS011;4349;47.552;8.904;2023-02-24T06:20:26;14.07;;;10.83;;
8622;SDS011;4349;47.552;8.904;2023-02-24T06:22:54;13.63;;;10.97;;
8622;SDS011;4349;47.552;8.904;2023-02-24T06:25:24;12.30;;;10.23;;
8622;SDS011;4349;47.552;8.904;2023-02-24T06:27:52;14.27;;;10.67;;
8622;SDS011;4349;47.552;8.904;2023-02-24T06:30:22;10.83;;;9.70;;
8622;SDS011;4349;47.552;8.904;2023-02-24T06:32:50;11.40;;;10.17;;
8622;SDS011;4349;47.552;8.904;2023-02-24T06:35:17;13.20;;;10.30;;
8622;SDS011;4349;47.552;8.904;2023-02-24T06:37:45;15.77;;;10.67;;
8622;SDS011;4349;47.552;8.904;2023-02-24T06:40:13;14.17;;;11.53;;
8622;SDS011;4349;47.552;8.904;2023-02-24T06:42:45;16.93;;;12.63;;
8622;SDS011;4349;47.552;8.904;2023-02-24T06:45:15;17.20;;;12.20;;
8622;SDS011;4349;47.552;8.904;2023-02-24T06:47:44;16.57;;;12.53;;
8622;SDS011;4349;47.552;8.904;2023-02-24T06:50:14;17.00;;;12.33;;
8622;SDS011;4349;47.552;8.904;2023-02-24T06:52:41;15.07;;;12.33;;
8622;SDS011;4349;47.552;8.904;2023-02-24T06:55:09;20.80;;;12.37;;
8622;SDS011;4349;47.552;8.904;2023-02-24T06:57:51;17.43;;;12.40;;
8622;SDS011;4349;47.552;8.904;2023-02-24T07:00:26;16.53;;;11.80;;
8622;SDS011;4349;47.552;8.904;2023-02-24T07:03:07;20.93;;;12.60;;
8622;SDS011;4349;47.552;8.904;2023-02-24T07:05:44;17.30;;;12.33;;
8622;SDS011;4349;47.552;8.904;2023-02-24T07:08:16;15.67;;;12.10;;
8622;SDS011;4349;47.552;8.904;2023-02-24T07:10:44;18.40;;;12.40;;
8622;SDS011;4349;47.552;8.904;2023-02-24T07:13:13;16.07;;;11.60;;
8622;SDS011;4349;47.552;8.904;2023-02-24T07:15:41;15.60;;;11.97;;
8622;SDS011;4349;47.552;8.904;2023-02-24T07:18:16;14.20;;;11.13;;
8622;SDS011;4349;47.552;8.904;2023-02-24T07:20:43;15.67;;;11.47;;
8622;SDS011;4349;47.552;8.904;2023-02-24T07:23:12;13.27;;;11.40;;
8622;SDS011;4349;47.552;8.904;2023-02-24T07:25:40;14.90;;;11.83;;
8622;SDS011;4349;47.552;8.904;2023-02-24T07:28:11;16.20;;;11.87;;
8622;SDS011;4349;47.552;8.904;2023-02-24T07:30:40;14.83;;;11.50;;
8622;SDS011;4349;47.552;8.904;2023-02-24T07:33:08;13.63;;;12.00;;
8622;SDS011;4349;47.552;8.904;2023-02-24T07:35:38;14.63;;;11.60;;
8622;SDS011;4349;47.552;8.904;2023-02-24T07:38:06;18.53;;;13.30;;
8622;SDS011;4349;47.552;8.904;2023-02-24T07:40:34;23.07;;;15.67;;
8622;SDS011;4349;47.552;8.904;2023-02-24T07:43:02;21.53;;;16.23;;
8622;SDS011;4349;47.552;8.904;2023-02-24T07:45:32;22.07;;;16.37;;
8622;SDS011;4349;47.552;8.904;2023-02-24T07:48:02;25.33;;;16.43;;
8622;SDS011;4349;47.552;8.904;2023-02-24T07:50:30;22.73;;;16.50;;
8622;SDS011;4349;47.552;8.904;2023-02-24T07:53:00;22.87;;;16.93;;
8622;SDS011;4349;47.552;8.904;2023-02-24T07:55:32;23.77;;;16.43;;
8622;SDS011;4349;47.552;8.904;2023-02-24T07:58:01;22.33;;;15.50;;
8622;SDS011;4349;47.552;8.904;2023-02-24T08:00:31;20.77;;;16.23;;
8622;SDS011;4349;47.552;8.904;2023-02-24T08:03:16;27.93;;;16.47;;
8622;SDS011;4349;47.552;8.904;2023-02-24T08:05:44;24.53;;;15.00;;
8622;SDS011;4349;47.552;8.904;2023-02-24T08:08:13;24.20;;;16.33;;
8622;SDS011;4349;47.552;8.904;2023-02-24T08:10:49;25.23;;;17.47;;
8622;SDS011;4349;47.552;8.904;2023-02-24T08:13:21;24.03;;;16.43;;
8622;SDS011;4349;47.552;8.904;2023-02-24T08:15:48;23.00;;;16.30;;
8622;SDS011;4349;47.552;8.904;2023-02-24T08:18:21;22.47;;;15.43;;
8622;SDS011;4349;47.552;8.904;2023-02-24T08:20:49;23.07;;;15.57;;
8622;SDS011;4349;47.552;8.904;2023-02-24T08:23:19;19.17;;;15.33;;
8622;SDS011;4349;47.552;8.904;2023-02-24T08:25:48;23.87;;;16.33;;
8622;SDS011;4349;47.552;8.904;2023-02-24T08:28:15;28.87;;;18.77;;
8622;SDS011;4349;47.552;8.904;2023-02-24T08:30:43;31.50;;;20.43;;
8622;SDS011;4349;47.552;8.904;2023-02-24T08:33:12;32.80;;;19.20;;
8622;SDS011;4349;47.552;8.904;2023-02-24T08:35:42;34.50;;;20.63;;
8622;SDS011;4349;47.552;8.904;2023-02-24T08:38:11;33.13;;;21.33;;
8622;SDS011;4349;47.552;8.904;2023-02-24T08:40:44;32.57;;;22.00;;
8622;SDS011;4349;47.552;8.904;2023-02-24T08:43:23;30.67;;;20.30;;
8622;SDS011;4349;47.552;8.904;2023-02-24T08:45:59;33.00;;;20.87;;
8622;SDS011;4349;47.552;8.904;2023-02-24T08:48:30;30.07;;;19.87;;
8622;SDS011;4349;47.552;8.904;2023-02-24T08:51:05;38.50;;;21.57;;
8622;SDS011;4349;47.552;8.904;2023-02-24T08:53:33;35.70;;;21.97;;
8622;SDS011;4349;47.552;8.904;2023-02-24T08:56:07;40.03;;;23.10;;
8622;SDS011;4349;47.552;8.904;2023-02-24T08:58:39;39.43;;;23.10;;
8622;SDS011;4349;47.552;8.904;2023-02-24T09:01:13;33.43;;;22.30;;
8622;SDS011;4349;47.552;8.904;2023-02-24T09:03:45;33.93;;;20.33;;
8622;SDS011;4349;47.552;8.904;2023-02-24T09:06:14;34.67;;;20.77;;
8622;SDS011;4349;47.552;8.904;2023-02-24T09:08:43;32.47;;;19.50;;
8622;SDS011;4349;47.552;8.904;2023-02-24T09:11:14;30.50;;;19.57;;
8622;SDS011;4349;47.552;8.904;2023-02-24T09:13:43;29.47;;;19.67;;
8622;SDS011;4349;47.552;8.904;2023-02-24T09:16:18;27.00;;;18.93;;
8622;SDS011;4349;47.552;8.904;2023-02-24T09:18:46;25.60;;;18.33;;
8622;SDS011;4349;47.552;8.904;2023-02-24T09:21:35;27.10;;;19.60;;
8622;SDS011;4349;47.552;8.904;2023-02-24T09:24:19;30.00;;;19.10;;
8622;SDS011;4349;47.552;8.904;2023-02-24T09:26:53;33.33;;;20.40;;
8622;SDS011;4349;47.552;8.904;2023-02-24T09:29:24;46.57;;;24.93;;
8622;SDS011;4349;47.552;8.904;2023-02-24T09:32:00;46.07;;;29.83;;
8622;SDS011;4349;47.552;8.904;2023-02-24T09:34:31;46.40;;;28.10;;
8622;SDS011;4349;47.552;8.904;2023-02-24T09:37:00;39.10;;;26.27;;
8622;SDS011;4349;47.552;8.904;2023-02-24T09:39:30;36.47;;;24.23;;
8622;SDS011;4349;47.552;8.904;2023-02-24T09:42:20;34.40;;;21.73;;
8622;SDS011;4349;47.552;8.904;2023-02-24T09:45:02;28.40;;;19.80;;
8622;SDS011;4349;47.552;8.904;2023-02-24T09:47:38;29.27;;;20.77;;
8622;SDS011;4349;47.552;8.904;2023-02-24T09:50:25;29.23;;;19.20;;
8622;SDS011;4349;47.552;8.904;2023-02-24T09:53:16;22.20;;;17.60;;
8622;SDS011;4349;47.552;8.904;2023-02-24T09:55:47;21.80;;;16.80;;
8622;SDS011;4349;47.552;8.904;2023-02-24T09:58:29;22.03;;;16.17;;
8622;SDS011;4349;47.552;8.904;2023-02-24T10:01:20;18.43;;;14.60;;
8622;SDS011;4349;47.552;8.904;2023-02-24T10:03:56;23.73;;;14.83;;
8622;SDS011;4349;47.552;8.904;2023-02-24T10:06:45;20.13;;;14.63;;
8622;SDS011;4349;47.552;8.904;2023-02-24T10:09:16;17.77;;;14.53;;
8622;SDS011;4349;47.552;8.904;2023-02-24T10:11:50;18.70;;;14.20;;
8622;SDS011;4349;47.552;8.904;2023-02-24T10:14:24;20.10;;;14.87;;
8622;SDS011;4349;47.552;8.904;2023-02-24T10:17:09;18.17;;;13.90;;
8622;SDS011;4349;47.552;8.904;2023-02-24T10:19:56;16.70;;;14.20;;
8622;SDS011;4349;47.552;8.904;2023-02-24T10:22:29;16.37;;;13.80;;
8622;SDS011;4349;47.552;8.904;2023-02-24T10:25:02;15.33;;;13.73;;
8622;SDS011;4349;47.552;8.904;2023-02-24T10:27:40;15.70;;;13.80;;
8622;SDS011;4349;47.552;8.904;2023-02-24T10:30:12;15.90;;;13.57;;
8622;SDS011;4349;47.552;8.904;2023-02-24T10:32:47;16.83;;;13.90;;
8622;SDS011;4349;47.552;8.904;2023-02-24T10:35:16;16.60;;;13.93;;
8622;SDS011;4349;47.552;8.904;2023-02-24T10:37:44;15.47;;;13.87;;
8622;SDS011;4349;47.552;8.904;2023-02-24T10:40:12;17.17;;;15.33;;
8622;SDS011;4349;47.552;8.904;2023-02-24T10:42:49;21.80;;;16.63;;
8622;SDS011;4349;47.552;8.904;2023-02-24T10:45:22;20.30;;;15.63;;
8622;SDS011;4349;47.552;8.904;2023-02-24T10:47:51;18.30;;;15.73;;
8622;SDS011;4349;47.552;8.904;2023-02-24T10:50:24;17.17;;;15.37;;
8622;SDS011;4349;47.552;8.904;2023-02-24T10:52:53;22.93;;;15.67;;
8622;SDS011;4349;47.552;8.904;2023-02-24T10:55:51;20.97;;;15.97;;
8622;SDS011;4349;47.552;8.904;2023-02-24T10:58:20;17.83;;;16.00;;
8622;SDS011;4349;47.552;8.904;2023-02-24T11:01:06;19.40;;;16.30;;
8622;SDS011;4349;47.552;8.904;2023-02-24T11:03:49;20.63;;;15.90;;
8622;SDS011;4349;47.552;8.904;2023-02-24T11:06:28;16.93;;;15.17;;
8622;SDS011;4349;47.552;8.904;2023-02-24T11:09:18;16.37;;;14.43;;
8622;SDS011;4349;47.552;8.904;2023-02-24T11:11:57;19.17;;;15.17;;
8622;SDS011;4349;47.552;8.904;2023-02-24T11:14:48;19.47;;;15.57;;
8622;SDS011;4349;47.552;8.904;2023-02-24T11:17:35;16.00;;;14.33;;
8622;SDS011;4349;47.552;8.904;2023-02-24T11:20:04;17.93;;;15.47;;
8622;SDS011;4349;47.552;8.904;2023-02-24T11:22:36;17.27;;;15.47;;
8622;SDS011;4349;47.552;8.904;2023-02-24T11:25:06;17.53;;;15.70;;
8622;SDS011;4349;47.552;8.904;2023-02-24T11:27:35;17.60;;;14.90;;
8622;SDS011;4349;47.552;8.904;2023-02-24T11:30:07;16.53;;;14.47;;
8622;SDS011;4349;47.552;8.904;2023-02-24T11:32:44;16.87;;;15.03;;
8622;SDS011;4349;47.552;8.904;2023-02-24T11:35:16;15.87;;;14.27;;
8622;SDS011;4349;47.552;8.904;2023-02-24T11:37:47;20.73;;;15.77;;
8622;SDS011;4349;47.552;8.904;2023-02-24T11:40:19;16.57;;;14.80;;
8622;SDS011;4349;47.552;8.904;2023-02-24T11:42:50;17.10;;;15.30;;
8622;SDS011;4349;47.552;8.904;2023-02-24T11:45:19;18.70;;;15.80;;
8622;SDS011;4349;47.552;8.904;2023-02-24T11:47:53;19.27;;;15.87;;
8622;SDS011;4349;47.552;8.904;2023-02-24T11:50:25;17.57;;;14.97;;
8622;SDS011;4349;47.552;8.904;2023-02-24T11:52:55;18.90;;;15.87;;
8622;SDS011;4349;47.552;8.904;2023-02-24T11:55:25;19.03;;;15.13;;
8622;SDS011;4349;47.552;8.904;2023-02-24T11:57:54;16.63;;;14.93;;
8622;SDS011;4349;47.552;8.904;2023-02-24T12:00:24;19.70;;;14.33;;
8622;SDS011;4349;47.552;8.904;2023-02-24T12:02:56;17.47;;;14.40;;
8622;SDS011;4349;47.552;8.904;2023-02-24T12:05:29;15.83;;;13.97;;
8622;SDS011;4349;47.552;8.904;2023-02-24T12:08:00;16.23;;;13.70;;
8622;SDS011;4349;47.552;8.904;2023-02-24T12:10:31;18.30;;;13.90;;
8622;SDS011;4349;47.552;8.904;2023-02-24T12:13:01;20.37;;;13.60;;
8622;SDS011;4349;47.552;8.904;2023-02-24T12:15:34;15.77;;;13.60;;
8622;SDS011;4349;47.552;8.904;2023-02-24T12:18:10;18.77;;;14.60;;
8622;SDS011;4349;47.552;8.904;2023-02-24T12:20:41;15.93;;;14.07;;
8622;SDS011;4349;47.552;8.904;2023-02-24T12:23:12;15.53;;;14.00;;
8622;SDS011;4349;47.552;8.904;2023-02-24T12:25:49;16.47;;;14.43;;
8622;SDS011;4349;47.552;8.904;2023-02-24T12:28:24;17.57;;;15.47;;
8622;SDS011;4349;47.552;8.904;2023-02-24T12:30:58;18.90;;;14.10;;
8622;SDS011;4349;47.552;8.904;2023-02-24T12:33:43;22.87;;;14.70;;
8622;SDS011;4349;47.552;8.904;2023-02-24T12:36:17;17.47;;;13.57;;
8622;SDS011;4349;47.552;8.904;2023-02-24T12:38:51;17.03;;;13.83;;
8622;SDS011;4349;47.552;8.904;2023-02-24T12:41:24;18.80;;;13.17;;
8622;SDS011;4349;47.552;8.904;2023-02-24T12:44:01;17.43;;;13.57;;
8622;SDS011;4349;47.552;8.904;2023-02-24T12:46:37;14.97;;;13.00;;
8622;SDS011;4349;47.552;8.904;2023-02-24T12:49:17;16.90;;;14.27;;
8622;SDS011;4349;47.552;8.904;2023-02-24T12:51:52;16.53;;;13.57;;
8622;SDS011;4349;47.552;8.904;2023-02-24T12:54:23;21.03;;;13.53;;
8622;SDS011;4349;47.552;8.904;2023-02-24T12:56:54;17.63;;;13.97;;
8622;SDS011;4349;47.552;8.904;2023-02-24T12:59:27;14.67;;;12.60;;
8622;SDS011;4349;47.552;8.904;2023-02-24T13:01:56;19.53;;;12.57;;
8622;SDS011;4349;47.552;8.904;2023-02-24T13:04:32;14.20;;;11.23;;
8622;SDS011;4349;47.552;8.904;2023-02-24T13:07:16;15.20;;;11.33;;
8622;SDS011;4349;47.552;8.904;2023-02-24T13:09:50;17.53;;;11.57;;
8622;SDS011;4349;47.552;8.904;2023-02-24T13:12:23;15.83;;;11.47;;
8622;SDS011;4349;47.552;8.904;2023-02-24T13:14:53;14.87;;;11.43;;
8622;SDS011;4349;47.552;8.904;2023-02-24T13:17:21;13.83;;;10.80;;
8622;SDS011;4349;47.552;8.904;2023-02-24T13:19:51;14.70;;;10.83;;
8622;SDS011;4349;47.552;8.904;2023-02-24T13:22:27;14.57;;;10.07;;
8622;SDS011;4349;47.552;8.904;2023-02-24T13:24:56;14.10;;;10.33;;
8622;SDS011;4349;47.552;8.904;2023-02-24T13:27:25;16.97;;;10.40;;
8622;SDS011;4349;47.552;8.904;2023-02-24T13:29:53;14.67;;;10.30;;
8622;SDS011;4349;47.552;8.904;2023-02-24T13:32:24;16.87;;;9.63;;
8622;SDS011;4349;47.552;8.904;2023-02-24T13:34:55;15.80;;;10.73;;
8622;SDS011;4349;47.552;8.904;2023-02-24T13:37:31;16.90;;;11.10;;
8622;SDS011;4349;47.552;8.904;2023-02-24T13:39:59;16.07;;;10.20;;
8622;SDS011;4349;47.552;8.904;2023-02-24T13:42:38;13.33;;;8.40;;
8622;SDS011;4349;47.552;8.904;2023-02-24T13:45:17;17.20;;;10.00;;
8622;SDS011;4349;47.552;8.904;2023-02-24T13:48:06;12.57;;;8.07;;
8622;SDS011;4349;47.552;8.904;2023-02-24T13:50:38;20.30;;;7.73;;
8622;SDS011;4349;47.552;8.904;2023-02-24T13:53:12;12.97;;;7.77;;
8622;SDS011;4349;47.552;8.904;2023-02-24T13:55:46;18.80;;;7.73;;
8622;SDS011;4349;47.552;8.904;2023-02-24T13:58:20;17.80;;;7.40;;
8622;SDS011;4349;47.552;8.904;2023-02-24T14:00:55;14.37;;;7.50;;
8622;SDS011;4349;47.552;8.904;2023-02-24T14:03:26;13.70;;;6.93;;
8622;SDS011;4349;47.552;8.904;2023-02-24T14:05:56;14.60;;;7.53;;
8622;SDS011;4349;47.552;8.904;2023-02-24T14:08:26;14.10;;;6.33;;
8622;SDS011;4349;47.552;8.904;2023-02-24T14:10:56;16.67;;;6.90;;
8622;SDS011;4349;47.552;8.904;2023-02-24T14:13:24;16.07;;;6.73;;
8622;SDS011;4349;47.552;8.904;2023-02-24T14:15:55;10.70;;;6.37;;
8622;SDS011;4349;47.552;8.904;2023-02-24T14:18:23;10.70;;;6.33;;
8622;SDS011;4349;47.552;8.904;2023-02-24T14:20:52;17.03;;;6.73;;
8622;SDS011;4349;47.552;8.904;2023-02-24T14:23:22;11.67;;;6.70;;
8622;SDS011;4349;47.552;8.904;2023-02-24T14:25:53;17.87;;;6.40;;
8622;SDS011;4349;47.552;8.904;2023-02-24T14:28:23;14.43;;;7.27;;
8622;SDS011;4349;47.552;8.904;2023-02-24T14:30:51;13.80;;;6.63;;
8622;SDS011;4349;47.552;8.904;2023-02-24T14:33:22;22.23;;;7.10;;
8622;SDS011;4349;47.552;8.904;2023-02-24T14:35:52;15.27;;;5.83;;
8622;SDS011;4349;47.552;8.904;2023-02-24T14:38:31;15.20;;;6.13;;
8622;SDS011;4349;47.552;8.904;2023-02-24T14:40:58;18.43;;;5.80;;
8622;SDS011;4349;47.552;8.904;2023-02-24T14:43:26;18.83;;;4.80;;
8622;SDS011;4349;47.552;8.904;2023-02-24T14:45:54;14.60;;;4.43;;
8622;SDS011;4349;47.552;8.904;2023-02-24T14:48:24;16.30;;;5.43;;
8622;SDS011;4349;47.552;8.904;2023-02-24T14:50:52;14.83;;;4.60;;
8622;SDS011;4349;47.552;8.904;2023-02-24T14:53:21;11.93;;;4.80;;
8622;SDS011;4349;47.552;8.904;2023-02-24T14:55:52;12.53;;;4.97;;
8622;SDS011;4349;47.552;8.904;2023-02-24T14:58:25;19.43;;;7.10;;
8622;SDS011;4349;47.552;8.904;2023-02-24T15:00:55;16.73;;;5.53;;
8622;SDS011;4349;47.552;8.904;2023-02-24T15:03:24;13.37;;;5.37;;
8622;SDS011;4349;47.552;8.904;2023-02-24T15:05:55;11.83;;;4.53;;
8622;SDS011;4349;47.552;8.904;2023-02-24T15:08:32;14.53;;;4.50;;
8622;SDS011;4349;47.552;8.904;2023-02-24T15:11:17;15.40;;;4.80;;
8622;SDS011;4349;47.552;8.904;2023-02-24T15:13:47;10.73;;;4.10;;
8622;SDS011;4349;47.552;8.904;2023-02-24T15:16:20;14.07;;;4.27;;
8622;SDS011;4349;47.552;8.904;2023-02-24T15:18:50;15.93;;;4.60;;
8622;SDS011;4349;47.552;8.904;2023-02-24T15:21:21;11.83;;;4.97;;
8622;SDS011;4349;47.552;8.904;2023-02-24T15:23:57;15.63;;;4.30;;
8622;SDS011;4349;47.552;8.904;2023-02-24T15:26:28;13.73;;;4.43;;
8622;SDS011;4349;47.552;8.904;2023-02-24T15:28:57;13.33;;;4.13;;